»·PEaware :: N326MC KJAC-KTEX

N326MC :: KJAC-KTEX

FLIGHT INFORMATION

Flight Status: Arrived
Operator: Privately registered:
United States
More flights under this callsign
Pilot: Anonymous 5456 (5456)
Aircraft: BEECH AIRCRAFT PREMIER
(PRM1)
More flights by this aircraft type
Origin: KJAC Jackson Hole
United States
Destination: KTEX Telluride Regl
United States
More flights between these airports :: More routes between these airports
Route: ALPIN2 KICNE JNC ETL
File this flight plan on PilotEdge
Remarks:
Altitude:
(Current/Filed)
33,000ft
Speed:
(Current/Filed)
450kts
Departed: 22-Aug-19 05:18 PM
Arrived: 22-Aug-19 06:32 PM
Distance/Time
Traveled:
363nm/1:14
Distance/Time
To Go:
Arrived

Flight Plot

Page will automatically refresh every two minutes.

Flight plan parsing failed; only flown route is shown


Map Options




Map Legend


Flown Route
Filed Route
Departure Airport
Arrival Airport
Navaid (VOR, NDB)
Fix

Horizontal Profiles

Position Reports

Time Latitude Longitude Heading Altitude Ground
Speed
22-Aug-19 16:56 43.599416 -110.738873 109 6427ft 0kts
22-Aug-19 16:57 43.599416 -110.738873 109 6427ft 0kts
22-Aug-19 16:58 43.599416 -110.738873 109 6427ft 0kts
22-Aug-19 16:59 43.599416 -110.738873 109 6427ft 0kts
22-Aug-19 17:00 43.599416 -110.738873 109 6427ft 0kts
22-Aug-19 17:01 43.599416 -110.738873 109 6427ft 0kts
22-Aug-19 17:02 43.599416 -110.738873 109 6427ft 0kts
22-Aug-19 17:03 43.599416 -110.738873 109 6427ft 0kts
22-Aug-19 17:04 43.599416 -110.738873 109 6427ft 0kts
22-Aug-19 17:05 43.599463 -110.738720 9 6427ft 4kts
22-Aug-19 17:06 43.599762 -110.739097 312 6426ft 5kts
22-Aug-19 17:07 43.603569 -110.738032 18 6427ft 25kts
22-Aug-19 17:08 43.608257 -110.735743 18 6427ft 9kts
22-Aug-19 17:09 43.611348 -110.734283 16 6427ft 26kts
22-Aug-19 17:10 43.614040 -110.732914 19 6427ft 0kts
22-Aug-19 17:11 43.614129 -110.732870 19 6427ft 0kts
22-Aug-19 17:12 43.614150 -110.732860 19 6427ft 0kts
22-Aug-19 17:13 43.614150 -110.732860 19 6427ft 0kts
22-Aug-19 17:14 43.614883 -110.732615 351 6427ft 0kts
22-Aug-19 17:15 43.614943 -110.732639 339 6427ft 0kts
22-Aug-19 17:16 43.615094 -110.732769 311 6427ft 3kts
22-Aug-19 17:17 43.609730 -110.736554 199 6427ft 101kts
22-Aug-19 17:18 43.570801 -110.757431 211 8244ft 164kts
22-Aug-19 17:19 43.527709 -110.789676 207 10806ft 184kts
22-Aug-19 17:20 43.481956 -110.819424 207 13555ft 181kts
22-Aug-19 17:21 43.434791 -110.849784 207 15811ft 194kts
22-Aug-19 17:22 43.385960 -110.881118 207 18136ft 194kts
22-Aug-19 17:23 43.337810 -110.911970 207 20296ft 189kts
22-Aug-19 17:24 43.282627 -110.947396 207 21142ft 246kts
22-Aug-19 17:25 43.219847 -110.980764 186 23187ft 251kts
22-Aug-19 17:26 43.150609 -110.949672 163 24833ft 270kts
22-Aug-19 17:27 43.080198 -110.909708 163 26373ft 278kts
22-Aug-19 17:28 43.007721 -110.868907 163 27803ft 285kts
22-Aug-19 17:29 42.934374 -110.827758 162 29102ft 291kts
22-Aug-19 17:30 42.860671 -110.786515 162 30294ft 298kts
22-Aug-19 17:31 42.783350 -110.743358 162 31435ft 304kts
22-Aug-19 17:32 42.704392 -110.699419 162 32478ft 310kts
22-Aug-19 17:33 42.623134 -110.654379 162 33079ft 328kts
22-Aug-19 17:34 42.534372 -110.605336 161 33089ft 361kts
22-Aug-19 17:35 42.437940 -110.552112 161 33087ft 386kts
22-Aug-19 17:36 42.335734 -110.495885 161 33086ft 406kts
22-Aug-19 17:37 42.229512 -110.437661 161 33084ft 419kts
22-Aug-19 17:38 42.120011 -110.377886 161 33100ft 428kts
22-Aug-19 17:39 42.008332 -110.317168 161 33098ft 433kts
22-Aug-19 17:40 41.896349 -110.256525 161 33097ft 436kts
22-Aug-19 17:41 41.819196 -110.214874 161 33101ft 438kts
22-Aug-19 17:42 41.705777 -110.153846 161 33100ft 440kts
22-Aug-19 17:43 41.591866 -110.092794 161 33089ft 441kts
22-Aug-19 17:44 41.477718 -110.031848 161 33077ft 442kts
22-Aug-19 17:45 41.363236 -109.970954 161 33054ft 443kts
22-Aug-19 17:46 41.248868 -109.910369 161 33017ft 439kts
22-Aug-19 17:47 41.136527 -109.851076 161 33016ft 432kts
22-Aug-19 17:48 41.025484 -109.792683 161 33016ft 428kts
22-Aug-19 17:49 40.914914 -109.734751 161 33016ft 426kts
22-Aug-19 17:50 40.810254 -109.680113 161 33020ft 426kts
22-Aug-19 17:51 40.699845 -109.622661 161 32991ft 426kts
22-Aug-19 17:52 40.593596 -109.567520 161 32968ft 426kts
22-Aug-19 17:53 40.491290 -109.514665 161 32961ft 426kts
22-Aug-19 17:54 40.381009 -109.457933 161 32954ft 426kts
22-Aug-19 17:55 40.271004 -109.401423 161 32956ft 426kts
22-Aug-19 17:56 40.160567 -109.344948 162 32953ft 426kts
22-Aug-19 17:57 40.050259 -109.288732 162 32951ft 425kts
22-Aug-19 17:58 39.940182 -109.232830 162 32951ft 425kts
22-Aug-19 17:59 39.829828 -109.176984 162 32954ft 425kts
22-Aug-19 18:00 39.719387 -109.121282 162 32956ft 425kts
22-Aug-19 18:01 39.609302 -109.065950 162 32960ft 425kts
22-Aug-19 18:02 39.498363 -109.010389 162 32962ft 425kts
22-Aug-19 18:03 39.388104 -108.955349 162 32963ft 426kts
22-Aug-19 18:04 39.277643 -108.900393 162 32963ft 426kts
22-Aug-19 18:05 39.167074 -108.845568 162 32963ft 426kts
22-Aug-19 18:06 39.056362 -108.790866 162 32963ft 426kts
22-Aug-19 18:07 38.959635 -108.739832 160 32962ft 428kts
22-Aug-19 18:08 38.845753 -108.679186 160 31182ft 462kts
22-Aug-19 18:09 38.732272 -108.619236 160 29170ft 481kts
22-Aug-19 18:10 38.611425 -108.555604 160 29055ft 465kts
22-Aug-19 18:11 38.495329 -108.494671 160 27711ft 418kts
22-Aug-19 18:12 38.397622 -108.443508 160 24778ft 350kts
22-Aug-19 18:13 38.315386 -108.400657 161 23070ft 277kts
22-Aug-19 18:14 38.247239 -108.365384 161 23102ft 257kts
22-Aug-19 18:15 38.185835 -108.333562 162 22931ft 255kts
22-Aug-19 18:16 38.113740 -108.296486 161 21255ft 300kts
22-Aug-19 18:17 38.037996 -108.247616 130 19559ft 315kts
22-Aug-19 18:18 38.044553 -108.146891 40 17891ft 300kts
22-Aug-19 18:19 38.113269 -108.137800 325 16859ft 230kts
22-Aug-19 18:20 38.142354 -108.198157 270 16514ft 208kts
22-Aug-19 18:21 38.139194 -108.276170 265 15745ft 225kts
22-Aug-19 18:22 38.135837 -108.355106 265 15742ft 222kts
22-Aug-19 18:23 38.092573 -108.389281 155 15811ft 227kts
22-Aug-19 18:24 38.061979 -108.320870 117 15898ft 220kts
22-Aug-19 18:26 38.038264 -108.250547 111 15974ft 216kts
22-Aug-19 18:27 38.021480 -108.177260 109 15064ft 213kts
22-Aug-19 18:28 37.999670 -108.103375 116 12666ft 236kts
22-Aug-19 18:29 37.981278 -108.034654 108 11142ft 203kts
22-Aug-19 18:30 37.967513 -107.973582 106 9938ft 158kts
22-Aug-19 18:31 37.956693 -107.922313 106 9109ft 139kts
22-Aug-19 18:32 37.952522 -107.902052 65 9062ft 6kts
22-Aug-19 18:33 37.953859 -107.901809 291 9062ft 7kts
22-Aug-19 18:34 37.953926 -107.902150 286 9062ft 0kts

Navigation Log

Ident Type
Flight plan parsing failed, navigation log unavailable